sensor_id;sensor_type;location;lat;lon;timestamp;pressure;altitude;pressure_sealevel;temperature;humidity
74573;BME280;73017;50.810;4.428;2023-10-31T00:00:23;99200.84;;;20.59;53.28
74573;BME280;73017;50.810;4.428;2023-10-31T00:02:48;99220.88;;;20.71;53.52
74573;BME280;73017;50.810;4.428;2023-10-31T00:05:14;99236.78;;;20.78;53.07
74573;BME280;73017;50.810;4.428;2023-10-31T00:07:40;99238.28;;;20.76;53.55
74573;BME280;73017;50.810;4.428;2023-10-31T00:10:05;99219.41;;;20.67;53.54
74573;BME280;73017;50.810;4.428;2023-10-31T00:12:32;99240.94;;;20.79;53.52
74573;BME280;73017;50.810;4.428;2023-10-31T00:14:57;99234.13;;;20.78;53.40
74573;BME280;73017;50.810;4.428;2023-10-31T00:17:23;99214.84;;;20.64;53.49
74573;BME280;73017;50.810;4.428;2023-10-31T00:19:48;99228.09;;;20.71;53.38
74573;BME280;73017;50.810;4.428;2023-10-31T00:22:14;99245.88;;;20.81;53.54
74573;BME280;73017;50.810;4.428;2023-10-31T00:24:39;99218.69;;;20.59;53.12
74573;BME280;73017;50.810;4.428;2023-10-31T00:27:05;99213.00;;;20.53;53.41
74573;BME280;73017;50.810;4.428;2023-10-31T00:29:30;99223.22;;;20.62;53.67
74573;BME280;73017;50.810;4.428;2023-10-31T00:31:56;99245.13;;;20.77;53.28
74573;BME280;73017;50.810;4.428;2023-10-31T00:34:21;99237.53;;;20.75;53.11
74573;BME280;73017;50.810;4.428;2023-10-31T00:36:47;99212.63;;;20.58;52.95
74573;BME280;73017;50.810;4.428;2023-10-31T00:39:12;99245.50;;;20.75;53.32
74573;BME280;73017;50.810;4.428;2023-10-31T00:41:39;99259.94;;;20.74;53.77
74573;BME280;73017;50.810;4.428;2023-10-31T00:44:05;99252.75;;;20.71;53.82
74573;BME280;73017;50.810;4.428;2023-10-31T00:46:30;99257.31;;;20.67;53.69
74573;BME280;73017;50.810;4.428;2023-10-31T00:48:56;99239.53;;;20.60;53.54
74573;BME280;73017;50.810;4.428;2023-10-31T00:51:21;99264.47;;;20.74;53.62
74573;BME280;73017;50.810;4.428;2023-10-31T00:53:46;99262.59;;;20.74;53.77
74573;BME280;73017;50.810;4.428;2023-10-31T00:56:12;99269.41;;;20.75;53.80
74573;BME280;73017;50.810;4.428;2023-10-31T00:58:37;99255.75;;;20.73;53.41
74573;BME280;73017;50.810;4.428;2023-10-31T01:01:06;99251.28;;;20.59;53.82
74573;BME280;73017;50.810;4.428;2023-10-31T01:03:31;99267.56;;;20.65;53.23
74573;BME280;73017;50.810;4.428;2023-10-31T01:05:57;99285.72;;;20.77;53.45
74573;BME280;73017;50.810;4.428;2023-10-31T01:08:22;99289.53;;;20.73;53.55
74573;BME280;73017;50.810;4.428;2023-10-31T01:10:48;99281.94;;;20.75;53.77
74573;BME280;73017;50.810;4.428;2023-10-31T01:13:13;99261.16;;;20.59;53.55
74573;BME280;73017;50.810;4.428;2023-10-31T01:15:38;99220.34;;;20.28;53.11
74573;BME280;73017;50.810;4.428;2023-10-31T01:18:04;99265.72;;;20.58;53.20
74573;BME280;73017;50.810;4.428;2023-10-31T01:20:29;99277.78;;;20.70;53.83
74573;BME280;73017;50.810;4.428;2023-10-31T01:22:55;99284.22;;;20.73;53.43
74573;BME280;73017;50.810;4.428;2023-10-31T01:25:20;99289.09;;;20.78;53.08
74573;BME280;73017;50.810;4.428;2023-10-31T01:27:46;99276.31;;;20.62;53.83
74573;BME280;73017;50.810;4.428;2023-10-31T01:30:12;99267.19;;;20.56;53.46
74573;BME280;73017;50.810;4.428;2023-10-31T01:32:37;99275.53;;;20.61;53.53
74573;BME280;73017;50.810;4.428;2023-10-31T01:35:03;99230.16;;;20.31;53.28
74573;BME280;73017;50.810;4.428;2023-10-31T01:37:29;99282.38;;;20.66;53.12
74573;BME280;73017;50.810;4.428;2023-10-31T01:39:55;99288.41;;;20.70;53.37
74573;BME280;73017;50.810;4.428;2023-10-31T01:42:20;99277.81;;;20.63;53.76
74573;BME280;73017;50.810;4.428;2023-10-31T01:44:45;99284.28;;;20.58;53.65
74573;BME280;73017;50.810;4.428;2023-10-31T01:47:11;99300.88;;;20.77;53.62
74573;BME280;73017;50.810;4.428;2023-10-31T01:49:37;99308.84;;;20.77;53.74
74573;BME280;73017;50.810;4.428;2023-10-31T01:52:04;99303.19;;;20.75;53.76
74573;BME280;73017;50.810;4.428;2023-10-31T01:54:32;99304.69;;;20.76;53.16
74573;BME280;73017;50.810;4.428;2023-10-31T01:56:59;99283.50;;;20.61;53.38
74573;BME280;73017;50.810;4.428;2023-10-31T01:59:27;99316.44;;;20.75;53.09
74573;BME280;73017;50.810;4.428;2023-10-31T02:01:53;99289.59;;;20.58;53.36
74573;BME280;73017;50.810;4.428;2023-10-31T02:04:19;99317.22;;;20.72;53.69
74573;BME280;73017;50.810;4.428;2023-10-31T02:06:45;99292.25;;;20.58;53.79
74573;BME280;73017;50.810;4.428;2023-10-31T02:09:10;99305.16;;;20.60;53.63
74573;BME280;73017;50.810;4.428;2023-10-31T02:11:37;99296.00;;;20.57;53.57
74573;BME280;73017;50.810;4.428;2023-10-31T02:14:02;99296.03;;;20.54;53.36
74573;BME280;73017;50.810;4.428;2023-10-31T02:16:28;99296.78;;;20.61;53.43
74573;BME280;73017;50.810;4.428;2023-10-31T02:18:53;99299.81;;;20.56;53.41
74573;BME280;73017;50.810;4.428;2023-10-31T02:21:20;99304.72;;;20.69;53.70
74573;BME280;73017;50.810;4.428;2023-10-31T02:23:59;99320.25;;;20.74;53.40
74573;BME280;73017;50.810;4.428;2023-10-31T02:26:32;99330.09;;;20.73;53.27
74573;BME280;73017;50.810;4.428;2023-10-31T02:28:59;99310.06;;;20.61;53.17
74573;BME280;73017;50.810;4.428;2023-10-31T02:31:25;99321.41;;;20.73;53.30
74573;BME280;73017;50.810;4.428;2023-10-31T02:33:51;99321.03;;;20.71;53.67
74573;BME280;73017;50.810;4.428;2023-10-31T02:36:17;99289.97;;;20.53;53.80
74573;BME280;73017;50.810;4.428;2023-10-31T02:38:43;99309.69;;;20.63;53.25
74573;BME280;73017;50.810;4.428;2023-10-31T02:41:08;99312.34;;;20.59;53.62
74573;BME280;73017;50.810;4.428;2023-10-31T02:43:34;99335.41;;;20.73;53.32
74573;BME280;73017;50.810;4.428;2023-10-31T02:45:59;99312.72;;;20.58;53.29
74573;BME280;73017;50.810;4.428;2023-10-31T02:48:26;99330.50;;;20.72;53.28
74573;BME280;73017;50.810;4.428;2023-10-31T02:50:51;99338.44;;;20.72;53.32
74573;BME280;73017;50.810;4.428;2023-10-31T02:53:19;99308.91;;;20.55;53.36
74573;BME280;73017;50.810;4.428;2023-10-31T02:55:45;99346.78;;;20.74;53.32
74573;BME280;73017;50.810;4.428;2023-10-31T02:58:10;99320.69;;;20.54;53.46
74573;BME280;73017;50.810;4.428;2023-10-31T03:00:36;99357.81;;;20.72;53.51
74573;BME280;73017;50.810;4.428;2023-10-31T03:03:02;99358.56;;;20.73;53.14
74573;BME280;73017;50.810;4.428;2023-10-31T03:05:27;99358.19;;;20.74;53.97
74573;BME280;73017;50.810;4.428;2023-10-31T03:07:53;99372.59;;;20.73;53.70
74573;BME280;73017;50.810;4.428;2023-10-31T03:10:19;99374.88;;;20.75;53.35
74573;BME280;73017;50.810;4.428;2023-10-31T03:12:45;99358.22;;;20.64;53.85
74573;BME280;73017;50.810;4.428;2023-10-31T03:15:10;99348.38;;;20.50;53.39
74573;BME280;73017;50.810;4.428;2023-10-31T03:17:36;99371.47;;;20.67;53.57
74573;BME280;73017;50.810;4.428;2023-10-31T03:20:01;99370.31;;;20.72;53.88
74573;BME280;73017;50.810;4.428;2023-10-31T03:22:27;99359.38;;;20.59;53.91
74573;BME280;73017;50.810;4.428;2023-10-31T03:24:53;99374.88;;;20.68;53.88
74573;BME280;73017;50.810;4.428;2023-10-31T03:27:18;99375.66;;;20.68;53.62
74573;BME280;73017;50.810;4.428;2023-10-31T03:29:44;99364.28;;;20.57;53.79
74573;BME280;73017;50.810;4.428;2023-10-31T03:32:09;99356.31;;;20.53;53.44
74573;BME280;73017;50.810;4.428;2023-10-31T03:34:35;99374.56;;;20.58;53.31
74573;BME280;73017;50.810;4.428;2023-10-31T03:37:00;99399.16;;;20.73;53.57
74573;BME280;73017;50.810;4.428;2023-10-31T03:39:26;99368.88;;;20.60;53.58
74573;BME280;73017;50.810;4.428;2023-10-31T03:41:52;99367.69;;;20.54;53.13
74573;BME280;73017;50.810;4.428;2023-10-31T03:44:17;99395.00;;;20.69;53.35
74573;BME280;73017;50.810;4.428;2023-10-31T03:46:43;99371.13;;;20.54;53.60
74573;BME280;73017;50.810;4.428;2023-10-31T03:49:08;99388.53;;;20.55;53.24
74573;BME280;73017;50.810;4.428;2023-10-31T03:51:34;99391.56;;;20.57;53.93
74573;BME280;73017;50.810;4.428;2023-10-31T03:54:00;99407.91;;;20.67;53.72
74573;BME280;73017;50.810;4.428;2023-10-31T03:56:25;99406.41;;;20.62;53.64
74573;BME280;73017;50.810;4.428;2023-10-31T03:58:51;99431.75;;;20.74;53.46
74573;BME280;73017;50.810;4.428;2023-10-31T04:01:16;99432.53;;;20.71;53.73
74573;BME280;73017;50.810;4.428;2023-10-31T04:03:42;99431.00;;;20.70;53.49
74573;BME280;73017;50.810;4.428;2023-10-31T04:06:08;99438.59;;;20.68;53.33
74573;BME280;73017;50.810;4.428;2023-10-31T04:08:33;99423.44;;;20.61;53.36
74573;BME280;73017;50.810;4.428;2023-10-31T04:10:59;99442.03;;;20.68;53.73
74573;BME280;73017;50.810;4.428;2023-10-31T04:13:24;99433.69;;;20.63;53.26
74573;BME280;73017;50.810;4.428;2023-10-31T04:15:50;99425.72;;;20.52;53.38
74573;BME280;73017;50.810;4.428;2023-10-31T04:18:15;99444.69;;;20.68;53.38
74573;BME280;73017;50.810;4.428;2023-10-31T04:20:42;99420.41;;;20.52;53.65
74573;BME280;73017;50.810;4.428;2023-10-31T04:23:08;99445.06;;;20.70;53.07
74573;BME280;73017;50.810;4.428;2023-10-31T04:25:33;99438.22;;;20.66;53.46
74573;BME280;73017;50.810;4.428;2023-10-31T04:27:59;99455.69;;;20.70;53.51
74573;BME280;73017;50.810;4.428;2023-10-31T04:30:25;99427.25;;;20.56;53.34
74573;BME280;73017;50.810;4.428;2023-10-31T04:32:51;99426.88;;;20.51;53.61
74573;BME280;73017;50.810;4.428;2023-10-31T04:35:17;99446.19;;;20.66;53.68
74573;BME280;73017;50.810;4.428;2023-10-31T04:37:42;99427.25;;;20.49;53.69
74573;BME280;73017;50.810;4.428;2023-10-31T04:40:08;99451.88;;;20.68;53.40
74573;BME280;73017;50.810;4.428;2023-10-31T04:42:34;99453.78;;;20.67;53.74
74573;BME280;73017;50.810;4.428;2023-10-31T04:45:00;99431.06;;;20.48;53.77
74573;BME280;73017;50.810;4.428;2023-10-31T04:47:25;99466.69;;;20.65;53.48
74573;BME280;73017;50.810;4.428;2023-10-31T04:49:50;99468.59;;;20.65;53.97
74573;BME280;73017;50.810;4.428;2023-10-31T04:52:17;99472.75;;;20.66;53.43
74573;BME280;73017;50.810;4.428;2023-10-31T04:54:42;99449.97;;;20.54;53.38
74573;BME280;73017;50.810;4.428;2023-10-31T04:57:08;99462.16;;;20.62;53.88
74573;BME280;73017;50.810;4.428;2023-10-31T04:59:34;99468.59;;;20.61;53.33
74573;BME280;73017;50.810;4.428;2023-10-31T05:01:59;99468.22;;;20.66;53.42
74573;BME280;73017;50.810;4.428;2023-10-31T05:04:25;99478.84;;;20.66;53.38
74573;BME280;73017;50.810;4.428;2023-10-31T05:06:51;99478.09;;;20.62;53.26
74573;BME280;73017;50.810;4.428;2023-10-31T05:09:16;99464.81;;;20.58;53.71
74573;BME280;73017;50.810;4.428;2023-10-31T05:11:43;99487.16;;;20.61;53.70
74573;BME280;73017;50.810;4.428;2023-10-31T05:14:10;99493.97;;;20.66;53.32
74573;BME280;73017;50.810;4.428;2023-10-31T05:16:43;99461.00;;;20.45;53.72
74573;BME280;73017;50.810;4.428;2023-10-31T05:19:09;99493.22;;;20.69;53.83
74573;BME280;73017;50.810;4.428;2023-10-31T05:21:34;99498.16;;;20.67;53.78
74573;BME280;73017;50.810;4.428;2023-10-31T05:24:00;99490.56;;;20.61;53.18
74573;BME280;73017;50.810;4.428;2023-10-31T05:26:25;99490.19;;;20.59;53.22
74573;BME280;73017;50.810;4.428;2023-10-31T05:28:53;99474.25;;;20.49;53.60
74573;BME280;73017;50.810;4.428;2023-10-31T05:31:18;99474.28;;;20.38;53.40
74573;BME280;73017;50.810;4.428;2023-10-31T05:33:44;99482.97;;;20.46;53.40
74573;BME280;73017;50.810;4.428;2023-10-31T05:36:20;99492.09;;;20.48;53.90
74573;BME280;73017;50.810;4.428;2023-10-31T05:38:45;99516.38;;;20.65;53.69
74573;BME280;73017;50.810;4.428;2023-10-31T05:41:11;99526.22;;;20.68;53.24
74573;BME280;73017;50.810;4.428;2023-10-31T05:43:36;99529.28;;;20.66;53.33
74573;BME280;73017;50.810;4.428;2023-10-31T05:46:02;99508.78;;;20.49;53.85
74573;BME280;73017;50.810;4.428;2023-10-31T05:48:27;99520.94;;;20.60;53.80
74573;BME280;73017;50.810;4.428;2023-10-31T05:50:53;99533.81;;;20.66;53.32
74573;BME280;73017;50.810;4.428;2023-10-31T05:53:18;99528.91;;;20.64;54.02
74573;BME280;73017;50.810;4.428;2023-10-31T05:55:44;99531.56;;;20.64;53.26
74573;BME280;73017;50.810;4.428;2023-10-31T05:58:09;99534.56;;;20.59;53.10
74573;BME280;73017;50.810;4.428;2023-10-31T06:00:34;99524.31;;;20.50;53.28
74573;BME280;73017;50.810;4.428;2023-10-31T06:03:01;99542.91;;;20.61;53.86
74573;BME280;73017;50.810;4.428;2023-10-31T06:05:26;99543.69;;;20.65;53.97
74573;BME280;73017;50.810;4.428;2023-10-31T06:07:52;99527.72;;;20.51;53.87
74573;BME280;73017;50.810;4.428;2023-10-31T06:10:17;99529.25;;;20.48;53.21
74573;BME280;73017;50.810;4.428;2023-10-31T06:12:43;99537.56;;;20.54;53.62
74573;BME280;73017;50.810;4.428;2023-10-31T06:15:08;99534.16;;;20.50;53.67
74573;BME280;73017;50.810;4.428;2023-10-31T06:17:34;99551.25;;;20.59;53.63
74573;BME280;73017;50.810;4.428;2023-10-31T06:20:00;99531.91;;;20.48;53.83
74573;BME280;73017;50.810;4.428;2023-10-31T06:22:26;99544.78;;;20.53;53.68
74573;BME280;73017;50.810;4.428;2023-10-31T06:24:52;99558.09;;;20.64;53.53
74573;BME280;73017;50.810;4.428;2023-10-31T06:27:17;99557.31;;;20.64;53.33
74573;BME280;73017;50.810;4.428;2023-10-31T06:29:43;99573.63;;;20.66;53.89
74573;BME280;73017;50.810;4.428;2023-10-31T06:32:08;99565.28;;;20.67;53.39
74573;BME280;73017;50.810;4.428;2023-10-31T06:34:33;99566.06;;;20.64;53.36
74573;BME280;73017;50.810;4.428;2023-10-31T06:36:59;99541.00;;;20.47;53.69
74573;BME280;73017;50.810;4.428;2023-10-31T06:39:24;99577.81;;;20.67;53.57
74573;BME280;73017;50.810;4.428;2023-10-31T06:41:50;99578.56;;;20.67;53.90
74573;BME280;73017;50.810;4.428;2023-10-31T06:44:19;99548.97;;;20.47;53.22
74573;BME280;73017;50.810;4.428;2023-10-31T06:46:45;99583.88;;;20.67;53.48
74573;BME280;73017;50.810;4.428;2023-10-31T06:49:10;99579.72;;;20.66;53.15
74573;BME280;73017;50.810;4.428;2023-10-31T06:51:36;99585.78;;;20.67;53.04
74573;BME280;73017;50.810;4.428;2023-10-31T06:54:01;99589.19;;;20.67;53.47
74573;BME280;73017;50.810;4.428;2023-10-31T06:56:26;99587.69;;;20.66;53.67
74573;BME280;73017;50.810;4.428;2023-10-31T06:58:54;99583.13;;;20.63;53.29
74573;BME280;73017;50.810;4.428;2023-10-31T07:01:19;99575.88;;;20.53;53.15
74573;BME280;73017;50.810;4.428;2023-10-31T07:03:46;99597.94;;;20.64;53.93
74573;BME280;73017;50.810;4.428;2023-10-31T07:06:12;99583.50;;;20.61;53.57
74573;BME280;73017;50.810;4.428;2023-10-31T07:08:38;99579.66;;;20.52;53.75
74573;BME280;73017;50.810;4.428;2023-10-31T07:11:03;99585.78;;;20.63;53.87
74573;BME280;73017;50.810;4.428;2023-10-31T07:13:30;99603.22;;;20.71;53.78
74573;BME280;73017;50.810;4.428;2023-10-31T07:15:55;99575.94;;;20.60;53.22
74573;BME280;73017;50.810;4.428;2023-10-31T07:18:21;99597.16;;;20.71;53.16
74573;BME280;73017;50.810;4.428;2023-10-31T07:20:47;99575.13;;;20.56;53.08
74573;BME280;73017;50.810;4.428;2023-10-31T07:23:12;99566.00;;;20.50;53.47
74573;BME280;73017;50.810;4.428;2023-10-31T07:25:37;99596.41;;;20.67;53.95
74573;BME280;73017;50.810;4.428;2023-10-31T07:28:03;99597.91;;;20.68;53.35
74573;BME280;73017;50.810;4.428;2023-10-31T07:30:29;99579.66;;;20.52;53.18
74573;BME280;73017;50.810;4.428;2023-10-31T07:32:55;99603.63;;;20.66;53.31
74573;BME280;73017;50.810;4.428;2023-10-31T07:35:20;99599.81;;;20.64;53.09
74573;BME280;73017;50.810;4.428;2023-10-31T07:37:46;99584.97;;;20.55;53.78
74573;BME280;73017;50.810;4.428;2023-10-31T07:40:12;99610.81;;;20.66;53.06
74573;BME280;73017;50.810;4.428;2023-10-31T07:42:37;99589.16;;;20.46;53.59
74573;BME280;73017;50.810;4.428;2023-10-31T07:45:03;99599.78;;;20.53;53.60
74573;BME280;73017;50.810;4.428;2023-10-31T07:47:28;99622.94;;;20.67;53.17
74573;BME280;73017;50.810;4.428;2023-10-31T07:49:54;99619.16;;;20.64;53.92
74573;BME280;73017;50.810;4.428;2023-10-31T07:52:19;99629.75;;;20.68;53.47
74573;BME280;73017;50.810;4.428;2023-10-31T07:54:45;99603.97;;;20.50;53.59
74573;BME280;73017;50.810;4.428;2023-10-31T07:57:10;99618.38;;;20.56;53.16
74573;BME280;73017;50.810;4.428;2023-10-31T07:59:36;99614.94;;;20.56;53.25
74573;BME280;73017;50.810;4.428;2023-10-31T08:02:02;99633.56;;;20.67;53.71
74573;BME280;73017;50.810;4.428;2023-10-31T08:04:28;99635.09;;;20.71;53.85
74573;BME280;73017;50.810;4.428;2023-10-31T08:06:55;99608.50;;;20.53;53.32
74573;BME280;73017;50.810;4.428;2023-10-31T08:09:20;99604.31;;;20.49;53.40
74573;BME280;73017;50.810;4.428;2023-10-31T08:11:46;99642.28;;;20.67;53.06
74573;BME280;73017;50.810;4.428;2023-10-31T08:14:11;99642.31;;;20.71;53.19
74573;BME280;73017;50.810;4.428;2023-10-31T08:16:37;99619.50;;;20.55;53.39
74573;BME280;73017;50.810;4.428;2023-10-31T08:19:02;99635.09;;;20.64;52.99
74573;BME280;73017;50.810;4.428;2023-10-31T08:21:28;99643.03;;;20.68;53.58
74573;BME280;73017;50.810;4.428;2023-10-31T08:23:59;99633.59;;;20.70;53.61
74573;BME280;73017;50.810;4.428;2023-10-31T08:26:25;99636.97;;;20.64;53.50
74573;BME280;73017;50.810;4.428;2023-10-31T08:28:50;99634.34;;;20.60;53.26
74573;BME280;73017;50.810;4.428;2023-10-31T08:31:16;99641.53;;;20.63;53.73
74573;BME280;73017;50.810;4.428;2023-10-31T08:33:42;99627.09;;;20.57;53.23
74573;BME280;73017;50.810;4.428;2023-10-31T08:36:08;99648.34;;;20.68;53.18
74573;BME280;73017;50.810;4.428;2023-10-31T08:38:34;99654.41;;;20.72;53.63
74573;BME280;73017;50.810;4.428;2023-10-31T08:40:59;99650.63;;;20.66;53.37
74573;BME280;73017;50.810;4.428;2023-10-31T08:43:25;99652.16;;;20.70;53.22
74573;BME280;73017;50.810;4.428;2023-10-31T08:45:51;99640.34;;;20.57;53.67
74573;BME280;73017;50.810;4.428;2023-10-31T08:48:16;99630.88;;;20.52;53.78
74573;BME280;73017;50.810;4.428;2023-10-31T08:50:41;99645.28;;;20.55;53.33
74573;BME280;73017;50.810;4.428;2023-10-31T08:53:07;99638.06;;;20.52;52.99
74573;BME280;73017;50.810;4.428;2023-10-31T08:55:32;99640.34;;;20.53;53.32
74573;BME280;73017;50.810;4.428;2023-10-31T08:57:58;99662.00;;;20.70;53.35
74573;BME280;73017;50.810;4.428;2023-10-31T09:00:23;99671.50;;;20.71;53.10
74573;BME280;73017;50.810;4.428;2023-10-31T09:02:49;99664.66;;;20.70;53.55
74573;BME280;73017;50.810;4.428;2023-10-31T09:05:15;99643.00;;;20.57;53.33
74573;BME280;73017;50.810;4.428;2023-10-31T09:07:40;99642.63;;;20.55;53.41
74573;BME280;73017;50.810;4.428;2023-10-31T09:10:06;99646.41;;;20.57;53.05
74573;BME280;73017;50.810;4.428;2023-10-31T09:12:32;99671.88;;;20.69;53.67
74573;BME280;73017;50.810;4.428;2023-10-31T09:14:57;99679.47;;;20.67;53.39
74573;BME280;73017;50.810;4.428;2023-10-31T09:17:23;99661.59;;;20.57;52.97
74573;BME280;73017;50.810;4.428;2023-10-31T09:19:48;99663.91;;;20.58;53.60
74573;BME280;73017;50.810;4.428;2023-10-31T09:22:13;99691.22;;;20.73;53.66
74573;BME280;73017;50.810;4.428;2023-10-31T09:24:39;99694.25;;;20.72;53.06
74573;BME280;73017;50.810;4.428;2023-10-31T09:27:05;99705.28;;;20.77;53.11
74573;BME280;73017;50.810;4.428;2023-10-31T09:29:31;99710.19;;;20.75;52.92
74573;BME280;73017;50.810;4.428;2023-10-31T09:31:56;99685.91;;;20.63;53.29
74573;BME280;73017;50.810;4.428;2023-10-31T09:34:22;99682.13;;;20.60;53.25
74573;BME280;73017;50.810;4.428;2023-10-31T09:36:47;99715.53;;;20.79;53.40
74573;BME280;73017;50.810;4.428;2023-10-31T09:39:13;99704.50;;;20.73;53.46
74573;BME280;73017;50.810;4.428;2023-10-31T09:41:38;99700.28;;;20.58;53.30
74573;BME280;73017;50.810;4.428;2023-10-31T09:44:04;99718.91;;;20.76;52.89
74573;BME280;73017;50.810;4.428;2023-10-31T09:46:30;99730.31;;;20.76;53.47
74573;BME280;73017;50.810;4.428;2023-10-31T09:48:56;99729.16;;;20.74;53.19
74573;BME280;73017;50.810;4.428;2023-10-31T09:51:22;99733.34;;;20.75;53.41
74573;BME280;73017;50.810;4.428;2023-10-31T09:53:48;99728.78;;;20.75;53.74
74573;BME280;73017;50.810;4.428;2023-10-31T09:56:15;99737.88;;;20.78;53.59
74573;BME280;73017;50.810;4.428;2023-10-31T09:58:41;99715.88;;;20.63;53.29
74573;BME280;73017;50.810;4.428;2023-10-31T10:01:07;99729.16;;;20.70;53.53
74573;BME280;73017;50.810;4.428;2023-10-31T10:03:32;99741.69;;;20.77;53.34
74573;BME280;73017;50.810;4.428;2023-10-31T10:05:58;99750.78;;;20.79;53.22
74573;BME280;73017;50.810;4.428;2023-10-31T10:08:24;99734.84;;;20.69;53.19
74573;BME280;73017;50.810;4.428;2023-10-31T10:10:50;99736.75;;;20.68;53.41
74573;BME280;73017;50.810;4.428;2023-10-31T10:13:17;99762.19;;;20.84;53.17
74573;BME280;73017;50.810;4.428;2023-10-31T10:15:50;99768.25;;;20.80;53.60
74573;BME280;73017;50.810;4.428;2023-10-31T10:18:30;99750.78;;;20.79;53.33
74573;BME280;73017;50.810;4.428;2023-10-31T10:20:59;99758.75;;;20.76;53.30
74573;BME280;73017;50.810;4.428;2023-10-31T10:23:25;99765.59;;;20.77;53.12
74573;BME280;73017;50.810;4.428;2023-10-31T10:25:52;99772.41;;;20.78;52.96
74573;BME280;73017;50.810;4.428;2023-10-31T10:28:18;99750.38;;;20.59;53.39
74573;BME280;73017;50.810;4.428;2023-10-31T10:30:47;99771.66;;;20.77;53.46
74573;BME280;73017;50.810;4.428;2023-10-31T10:33:14;99751.91;;;20.60;53.69
74573;BME280;73017;50.810;4.428;2023-10-31T10:35:41;99781.53;;;20.77;53.77
74573;BME280;73017;50.810;4.428;2023-10-31T10:38:18;99781.53;;;20.80;53.61
74573;BME280;73017;50.810;4.428;2023-10-31T10:40:45;99781.94;;;20.83;53.79
74573;BME280;73017;50.810;4.428;2023-10-31T10:43:25;99777.72;;;20.81;53.29
74573;BME280;73017;50.810;4.428;2023-10-31T10:45:55;99774.69;;;20.79;53.16
74573;BME280;73017;50.810;4.428;2023-10-31T10:48:23;99775.47;;;20.76;53.46
74573;BME280;73017;50.810;4.428;2023-10-31T10:51:18;99777.38;;;20.83;53.29
74573;BME280;73017;50.810;4.428;2023-10-31T10:53:50;99782.31;;;20.85;53.21
74573;BME280;73017;50.810;4.428;2023-10-31T10:56:34;99776.22;;;20.80;53.84
74573;BME280;73017;50.810;4.428;2023-10-31T10:59:08;99778.50;;;20.82;53.90
74573;BME280;73017;50.810;4.428;2023-10-31T11:01:41;99773.56;;;20.77;53.88
74573;BME280;73017;50.810;4.428;2023-10-31T11:04:07;99794.06;;;20.84;53.11
74573;BME280;73017;50.810;4.428;2023-10-31T11:06:33;99791.41;;;20.84;53.63
74573;BME280;73017;50.810;4.428;2023-10-31T11:09:02;99772.03;;;20.76;53.66
74573;BME280;73017;50.810;4.428;2023-10-31T11:11:28;99785.34;;;20.83;53.61
74573;BME280;73017;50.810;4.428;2023-10-31T11:13:55;99784.19;;;20.84;53.26
74573;BME280;73017;50.810;4.428;2023-10-31T11:16:40;99751.91;;;20.60;53.45
74573;BME280;73017;50.810;4.428;2023-10-31T11:19:08;99756.84;;;20.66;53.85
74573;BME280;73017;50.810;4.428;2023-10-31T11:21:35;99792.53;;;20.86;53.81
74573;BME280;73017;50.810;4.428;2023-10-31T11:24:01;99762.16;;;20.69;53.93
74573;BME280;73017;50.810;4.428;2023-10-31T11:26:27;99757.97;;;20.65;53.74
74573;BME280;73017;50.810;4.428;2023-10-31T11:29:05;99778.09;;;20.80;53.46
74573;BME280;73017;50.810;4.428;2023-10-31T11:31:31;99754.19;;;20.62;53.70
74573;BME280;73017;50.810;4.428;2023-10-31T11:34:01;99788.75;;;20.84;53.47
74573;BME280;73017;50.810;4.428;2023-10-31T11:36:30;99763.31;;;20.68;53.40
74573;BME280;73017;50.810;4.428;2023-10-31T11:39:15;99780.03;;;20.83;53.29
74573;BME280;73017;50.810;4.428;2023-10-31T11:41:48;99748.47;;;20.64;53.54
74573;BME280;73017;50.810;4.428;2023-10-31T11:44:15;99771.66;;;20.81;53.44
74573;BME280;73017;50.810;4.428;2023-10-31T11:46:40;99779.63;;;20.81;53.26
74573;BME280;73017;50.810;4.428;2023-10-31T11:49:06;99782.28;;;20.81;53.88
74573;BME280;73017;50.810;4.428;2023-10-31T11:51:32;99762.53;;;20.68;53.56
74573;BME280;73017;50.810;4.428;2023-10-31T11:54:00;99771.66;;;20.77;53.81
74573;BME280;73017;50.810;4.428;2023-10-31T11:56:27;99766.72;;;20.76;53.41
74573;BME280;73017;50.810;4.428;2023-10-31T11:59:00;99753.44;;;20.72;53.78
74573;BME280;73017;50.810;4.428;2023-10-31T12:01:26;99776.97;;;20.81;53.75
74573;BME280;73017;50.810;4.428;2023-10-31T12:03:52;99775.09;;;20.81;53.86
74573;BME280;73017;50.810;4.428;2023-10-31T12:06:17;99780.78;;;20.84;53.56
74573;BME280;73017;50.810;4.428;2023-10-31T12:08:45;99775.09;;;20.81;53.88
74573;BME280;73017;50.810;4.428;2023-10-31T12:11:13;99788.00;;;20.87;53.93
74573;BME280;73017;50.810;4.428;2023-10-31T12:14:02;99783.44;;;20.87;53.26
74573;BME280;73017;50.810;4.428;2023-10-31T12:16:33;99751.16;;;20.67;53.79
74573;BME280;73017;50.810;4.428;2023-10-31T12:19:04;99748.13;;;20.65;53.41
74573;BME280;73017;50.810;4.428;2023-10-31T12:24:11;99776.97;;;20.81;53.65
74573;BME280;73017;50.810;4.428;2023-10-31T12:26:38;99749.63;;;20.63;53.72
74573;BME280;73017;50.810;4.428;2023-10-31T12:29:11;99782.31;;;20.85;53.94
74573;BME280;73017;50.810;4.428;2023-10-31T12:31:45;99749.63;;;20.70;53.84
74573;BME280;73017;50.810;4.428;2023-10-31T12:34:11;99772.44;;;20.85;53.38
74573;BME280;73017;50.810;4.428;2023-10-31T12:36:38;99757.63;;;20.73;53.44
74573;BME280;73017;50.810;4.428;2023-10-31T12:39:07;99745.88;;;20.74;53.65
74573;BME280;73017;50.810;4.428;2023-10-31T12:41:35;99763.72;;;20.85;53.68
74573;BME280;73017;50.810;4.428;2023-10-31T12:44:02;99748.91;;;20.73;53.92
74573;BME280;73017;50.810;4.428;2023-10-31T12:46:30;99737.50;;;20.69;53.20
74573;BME280;73017;50.810;4.428;2023-10-31T12:48:59;99767.13;;;20.89;53.34
74573;BME280;73017;50.810;4.428;2023-10-31T12:51:25;99771.66;;;20.88;53.61
74573;BME280;73017;50.810;4.428;2023-10-31T12:53:51;99732.16;;;20.58;53.96
74573;BME280;73017;50.810;4.428;2023-10-31T12:56:39;99783.06;;;20.89;53.96
74573;BME280;73017;50.810;4.428;2023-10-31T12:59:09;99784.19;;;20.84;53.98